Time;durP1;ratioP1;P1;durP2;ratioP2;P2;SDS_P1;SDS_P2;PMS_P1;PMS_P2;Temp;Humidity;BMP_temperature;BMP_pressure;BME280_temperature;BME280_humidity;BME280_pressure;Samples;Min_cycle;Max_cycle;Signal;HPM_P1;HPM_P2
2022/09/25 00:00:16;;;;;;;7.90;4.85;;;;;;;6.04;100.00;99198.72;5153080;27;20043;-58
2022/09/25 00:02:42;;;;;;;7.72;4.53;;;;;;;6.10;100.00;99193.88;5153415;27;20091;-58
2022/09/25 00:05:08;;;;;;;7.75;3.85;;;;;;;6.14;100.00;99173.00;5153109;27;20066;-58
2022/09/25 00:07:35;;;;;;;6.88;4.05;;;;;;;6.02;100.00;99178.41;5153232;27;20054;-59
2022/09/25 00:10:02;;;;;;;6.18;4.75;;;;;;;6.15;100.00;99171.06;5153153;27;20106;-58
2022/09/25 00:12:28;;;;;;;5.53;4.10;;;;;;;6.00;100.00;99176.03;5153044;27;20053;-58
2022/09/25 00:14:55;;;;;;;5.43;3.95;;;;;;;6.24;100.00;99169.06;5152886;27;20118;-58
2022/09/25 00:17:21;;;;;;;7.53;4.20;;;;;;;5.99;100.00;99177.13;5153036;27;20053;-58
2022/09/25 00:19:50;;;;;;;5.22;3.65;;;;;;;5.93;100.00;99173.03;5153149;27;20054;-58
2022/09/25 00:22:16;;;;;;;5.65;3.20;;;;;;;6.12;100.00;99172.53;5152806;27;20057;-58
2022/09/25 00:24:44;;;;;;;4.78;3.05;;;;;;;6.01;100.00;99169.44;5152675;27;20050;-58
2022/09/25 00:27:10;;;;;;;6.57;3.33;;;;;;;6.02;100.00;99165.59;5152123;27;20053;-58
2022/09/25 00:29:38;;;;;;;6.38;3.25;;;;;;;6.10;100.00;99172.88;5153025;27;20455;-58
2022/09/25 00:32:05;;;;;;;4.45;3.15;;;;;;;6.01;100.00;99168.66;5152651;27;20418;-58
2022/09/25 00:34:32;;;;;;;4.03;2.90;;;;;;;5.96;100.00;99177.78;5152881;27;20425;-58
2022/09/25 00:36:58;;;;;;;4.35;3.10;;;;;;;5.93;100.00;99173.03;5152462;27;20058;-58
2022/09/25 00:39:25;;;;;;;6.32;3.78;;;;;;;5.91;100.00;99167.09;5152487;27;20061;-58
2022/09/25 00:41:52;;;;;;;5.13;3.40;;;;;;;5.90;100.00;99160.06;5152571;27;20055;-58
2022/09/25 00:44:52;;;;;;;4.00;2.90;;;;;;;5.93;100.00;99162.16;5152431;27;20050;-58
2022/09/25 00:47:23;;;;;;;5.25;3.33;;;;;;;5.94;100.00;99157.50;5152489;27;20089;-58
2022/09/25 00:49:52;;;;;;;4.40;3.05;;;;;;;5.86;100.00;99162.66;5152306;27;20047;-58
2022/09/25 00:52:18;;;;;;;4.32;2.92;;;;;;;5.78;100.00;99166.25;5152427;27;20429;-58
2022/09/25 00:54:48;;;;;;;3.95;3.20;;;;;;;5.88;100.00;99165.84;5152196;27;20053;-58
2022/09/25 00:57:19;;;;;;;4.20;2.97;;;;;;;5.72;100.00;99158.63;5152617;27;20106;-58
2022/09/25 00:59:49;;;;;;;8.10;3.35;;;;;;;5.85;100.00;99149.38;5152170;27;20050;-58
2022/09/25 01:02:23;;;;;;;3.88;2.75;;;;;;;5.70;100.00;99148.09;5152137;27;20057;-58
2022/09/25 01:04:51;;;;;;;5.95;3.20;;;;;;;5.83;100.00;99141.56;5152239;27;20051;-58
2022/09/25 01:07:19;;;;;;;6.40;3.47;;;;;;;5.62;100.00;99151.66;5151903;27;20043;-58
2022/09/25 01:09:46;;;;;;;5.30;3.53;;;;;;;5.61;100.00;99144.63;5152316;27;20163;-58
2022/09/25 01:12:12;;;;;;;4.18;3.05;;;;;;;5.81;100.00;99137.59;5152083;27;20050;-57
2022/09/25 01:14:40;;;;;;;5.82;3.08;;;;;;;5.79;100.00;99137.09;5152068;27;20046;-58
2022/09/25 01:17:15;;;;;;;4.43;3.05;;;;;;;5.72;100.00;99129.50;5151831;27;20089;-58
2022/09/25 01:19:55;;;;;;;4.20;3.25;;;;;;;5.69;100.00;99122.00;5151985;27;20054;-58
2022/09/25 01:22:34;;;;;;;4.40;2.92;;;;;;;5.76;100.00;99118.72;5151796;27;20493;-58
2022/09/25 01:25:10;;;;;;;5.13;3.53;;;;;;;5.72;100.00;99123.25;5151791;27;20047;-58
2022/09/25 01:27:45;;;;;;;4.97;3.13;;;;;;;5.63;100.00;99120.59;5152039;27;20050;-58
2022/09/25 01:30:13;;;;;;;7.03;3.58;;;;;;;5.66;100.00;99125.38;5151673;27;20510;-58
2022/09/25 01:32:51;;;;;;;3.97;2.95;;;;;;;5.56;100.00;99120.34;5151667;27;20497;-58
2022/09/25 01:35:25;;;;;;;5.00;3.33;;;;;;;5.72;100.00;99121.31;5151608;27;20050;-58
2022/09/25 01:37:58;;;;;;;4.22;3.13;;;;;;;5.49;100.00;99131.75;5150452;27;20047;-58
2022/09/25 01:40:32;;;;;;;6.28;3.72;;;;;;;5.52;100.00;99125.66;5151594;27;20494;-58
2022/09/25 01:43:06;;;;;;;4.07;3.03;;;;;;;5.66;100.00;99120.75;5151643;27;20047;-58
2022/09/25 01:45:41;;;;;;;8.05;3.30;;;;;;;5.65;100.00;99124.59;5151421;27;20497;-58
2022/09/25 01:48:10;;;;;;;6.07;3.00;;;;;;;5.66;100.00;99141.69;5151317;27;20047;-58
2022/09/25 01:50:42;;;;;;;4.55;3.47;;;;;;;5.70;100.00;99141.81;5151480;27;20043;-58
2022/09/25 01:53:13;;;;;;;6.68;3.65;;;;;;;5.53;100.00;99146.28;5151120;27;20051;-58
2022/09/25 01:55:46;;;;;;;7.00;3.28;;;;;;;5.43;100.00;99139.31;5151702;27;20065;-58
2022/09/25 01:58:18;;;;;;;5.57;3.67;;;;;;;5.59;100.00;99123.19;5151546;27;20057;-58
2022/09/25 02:00:51;;;;;;;5.20;3.00;;;;;;;5.54;100.00;99136.22;5151399;27;20053;-58
2022/09/25 02:03:21;;;;;;;4.53;3.17;;;;;;;5.34;100.00;99140.50;5151447;27;20054;-58
2022/09/25 02:05:52;;;;;;;4.18;3.10;;;;;;;5.53;100.00;99123.72;5151051;27;20053;-58
2022/09/25 02:08:24;;;;;;;6.22;3.10;;;;;;;5.55;100.00;99126.91;5151253;27;20398;-58
2022/09/25 02:10:54;;;;;;;4.93;2.92;;;;;;;5.51;100.00;99129.50;5151155;27;20506;-58
2022/09/25 02:13:22;;;;;;;5.07;3.10;;;;;;;5.51;100.00;99140.38;5151269;27;20506;-58
2022/09/25 02:15:54;;;;;;;4.43;3.17;;;;;;;5.41;100.00;99155.16;5150927;27;20042;-58
2022/09/25 02:21:14;;;;;;;4.25;3.40;;;;;;;5.40;100.00;99139.19;5151708;27;20498;-58
2022/09/25 02:23:50;;;;;;;5.85;3.67;;;;;;;5.42;100.00;99145.88;5150997;27;20053;-58
2022/09/25 02:26:23;;;;;;;4.57;3.28;;;;;;;5.40;100.00;99142.72;5151154;27;20528;-58
2022/09/25 02:28:50;;;;;;;5.35;3.42;;;;;;;5.38;100.00;99138.72;5150916;27;20058;-58
2022/09/25 02:31:18;;;;;;;7.88;3.60;;;;;;;5.12;100.00;99142.38;5151139;27;20103;-58
2022/09/25 02:33:44;;;;;;;6.95;2.90;;;;;;;5.25;100.00;99121.53;5150896;27;20425;-58
2022/09/25 02:36:18;;;;;;;9.38;3.47;;;;;;;5.26;100.00;99136.72;5150978;27;20050;-58
2022/09/25 02:38:44;;;;;;;4.90;3.17;;;;;;;5.31;100.00;99130.28;5150727;27;20506;-58
2022/09/25 02:41:20;;;;;;;5.20;3.47;;;;;;;5.33;100.00;99125.31;5150719;27;20288;-58
2022/09/25 02:43:57;;;;;;;4.75;3.63;;;;;;;5.25;100.00;99124.25;5150718;27;20074;-57
2022/09/25 02:46:35;;;;;;;5.35;3.30;;;;;;;5.16;100.00;99121.59;5150821;27;20050;-58
2022/09/25 02:49:12;;;;;;;5.55;3.45;;;;;;;5.22;100.00;99107.81;5151870;27;20054;-57
2022/09/25 02:51:46;;;;;;;4.70;3.03;;;;;;;5.12;100.00;99092.69;5154208;27;20047;-58
2022/09/25 02:54:17;;;;;;;5.32;3.70;;;;;;;5.12;100.00;99082.59;5154556;27;20050;-57
2022/09/25 02:56:49;;;;;;;5.22;3.08;;;;;;;5.06;100.00;99086.63;5154357;27;20046;-58
2022/09/25 02:59:22;;;;;;;4.97;3.20;;;;;;;5.21;100.00;99081.78;5154222;27;20054;-58
2022/09/25 03:01:51;;;;;;;4.28;3.40;;;;;;;4.98;100.00;99092.16;5154147;27;20493;-58
2022/09/25 03:04:19;;;;;;;5.55;3.33;;;;;;;5.08;100.00;99083.59;5154014;27;20497;-58
2022/09/25 03:06:45;;;;;;;7.13;3.97;;;;;;;5.13;100.00;99089.66;5154267;27;20054;-58
2022/09/25 03:09:16;;;;;;;7.18;3.53;;;;;;;5.13;100.00;99092.38;5153800;27;20058;-58
2022/09/25 03:11:42;;;;;;;4.70;3.55;;;;;;;5.15;100.00;99097.47;5154411;27;20054;-57
2022/09/25 03:14:09;;;;;;;5.60;2.97;;;;;;;4.90;100.00;99088.38;5153724;27;20050;-57
2022/09/25 03:16:41;;;;;;;5.57;3.35;;;;;;;5.07;100.00;99073.88;5154321;27;20055;-57
2022/09/25 03:19:08;;;;;;;6.68;3.38;;;;;;;4.80;100.00;99064.28;5153964;27;20103;-57
2022/09/25 03:21:34;;;;;;;4.45;3.25;;;;;;;4.55;100.00;99052.44;5154016;27;20057;-57
2022/09/25 03:24:00;;;;;;;5.07;3.50;;;;;;;4.77;100.00;99016.06;5153698;27;20075;-58
2022/09/25 03:26:27;;;;;;;5.88;3.67;;;;;;;4.82;100.00;99008.50;5153654;27;20493;-57
2022/09/25 03:28:53;;;;;;;4.95;2.85;;;;;;;4.97;100.00;99004.41;5153763;27;20053;-57
2022/09/25 03:31:20;;;;;;;5.97;3.38;;;;;;;4.92;100.00;99008.13;5153536;27;20047;-58
2022/09/25 03:33:46;;;;;;;5.90;3.65;;;;;;;4.88;100.00;99017.25;5153658;27;20524;-58
2022/09/25 03:36:15;;;;;;;5.82;3.78;;;;;;;4.94;100.00;99032.25;5153481;27;20053;-58
2022/09/25 03:38:42;;;;;;;4.68;2.90;;;;;;;4.91;100.00;99043.78;5153540;27;20051;-58
2022/09/25 03:41:10;;;;;;;5.03;3.28;;;;;;;4.92;100.00;99053.50;5153445;27;20046;-57
2022/09/25 03:43:38;;;;;;;7.30;3.40;;;;;;;4.79;100.00;99066.19;5153348;27;20088;-58
2022/09/25 03:46:05;;;;;;;5.40;3.70;;;;;;;4.80;100.00;99062.38;5153615;27;20047;-57
2022/09/25 03:48:31;;;;;;;10.25;3.60;;;;;;;4.41;100.00;99058.09;5153281;27;20050;-57
2022/09/25 03:50:58;;;;;;;4.28;3.13;;;;;;;4.53;100.00;99044.63;5153279;27;20050;-57
2022/09/25 03:53:25;;;;;;;5.55;3.42;;;;;;;4.63;100.00;99035.31;5153347;27;20541;-57
2022/09/25 03:55:51;;;;;;;8.88;4.30;;;;;;;4.63;100.00;99032.59;5153469;27;20092;-58
2022/09/25 03:58:18;;;;;;;4.68;3.70;;;;;;;4.59;100.00;99032.44;5153025;27;20505;-58
2022/09/25 04:00:45;;;;;;;5.45;3.97;;;;;;;4.57;100.00;99037.44;5152392;27;20042;-58
2022/09/25 04:03:11;;;;;;;4.65;3.45;;;;;;;4.59;100.00;99028.94;5153124;27;20173;-57
2022/09/25 04:05:37;;;;;;;14.15;4.10;;;;;;;4.56;100.00;99011.38;5153176;27;20051;-58
2022/09/25 04:08:04;;;;;;;5.55;3.63;;;;;;;4.49;100.00;99011.91;5152778;27;20096;-58
2022/09/25 04:10:31;;;;;;;5.93;3.72;;;;;;;4.63;100.00;99011.69;5152946;27;20051;-57
2022/09/25 04:12:57;;;;;;;6.50;3.90;;;;;;;4.29;100.00;99014.56;5152828;27;20497;-58
2022/09/25 04:15:24;;;;;;;5.78;4.05;;;;;;;4.54;100.00;99000.06;5152886;27;20047;-57
2022/09/25 04:17:52;;;;;;;5.95;3.63;;;;;;;4.59;100.00;98997.16;5153128;27;20054;-58
2022/09/25 04:20:18;;;;;;;6.78;4.10;;;;;;;4.62;100.00;99001.13;5152855;27;20046;-58
2022/09/25 04:22:44;;;;;;;10.07;5.45;;;;;;;4.69;100.00;98996.75;5152979;27;20082;-58
2022/09/25 04:25:11;;;;;;;7.90;4.07;;;;;;;4.74;100.00;99008.59;5152645;27;20516;-57
2022/09/25 04:27:38;;;;;;;6.28;3.95;;;;;;;4.48;100.00;99012.25;5152815;27;20049;-58
2022/09/25 04:30:05;;;;;;;5.80;3.80;;;;;;;4.72;100.00;98992.59;5152760;27;20051;-57
2022/09/25 04:35:16;;;;;;;7.40;4.38;;;;;;;4.51;100.00;98986.38;5152602;27;20049;-57
2022/09/25 04:37:42;;;;;;;4.00;3.03;;;;;;;4.71;100.00;98972.00;5152424;27;20047;-58
2022/09/25 04:40:09;;;;;;;10.18;4.07;;;;;;;4.90;100.00;98963.41;5152711;27;20046;-58
2022/09/25 04:42:35;;;;;;;18.25;4.30;;;;;;;5.05;100.00;98981.03;5152525;27;20068;-58
2022/09/25 04:45:02;;;;;;;7.43;4.88;;;;;;;4.94;100.00;98988.78;5152726;27;20114;-58
2022/09/25 04:47:29;;;;;;;9.68;4.63;;;;;;;4.81;100.00;99004.22;5152202;27;20046;-58
2022/09/25 04:49:55;;;;;;;5.90;4.20;;;;;;;4.98;100.00;98991.63;5152551;27;20054;-58
2022/09/25 04:52:21;;;;;;;6.90;4.72;;;;;;;5.39;100.00;98982.63;5152163;27;20051;-58
2022/09/25 04:54:48;;;;;;;7.20;4.63;;;;;;;5.58;100.00;98998.44;5152418;27;20042;-58
2022/09/25 04:57:15;;;;;;;6.47;4.38;;;;;;;5.73;100.00;99022.28;5152257;27;20082;-58
2022/09/25 04:59:42;;;;;;;6.53;4.43;;;;;;;5.86;100.00;99026.63;5152192;27;20050;-58
2022/09/25 05:02:09;;;;;;;8.40;4.15;;;;;;;5.95;100.00;99044.81;5152155;27;20053;-58
2022/09/25 05:04:35;;;;;;;5.13;3.72;;;;;;;5.85;100.00;99065.84;5152121;27;20050;-58
2022/09/25 05:07:01;;;;;;;12.05;4.13;;;;;;;6.13;100.00;99073.41;5151957;27;20093;-58
2022/09/25 05:09:27;;;;;;;4.00;3.42;;;;;;;6.27;100.00;99086.72;5152343;27;20531;-58
2022/09/25 05:11:53;;;;;;;5.15;3.80;;;;;;;6.39;100.00;99102.28;5152244;27;20837;-58
2022/09/25 05:14:20;;;;;;;4.57;3.70;;;;;;;6.67;100.00;99122.28;5152160;27;20054;-58
2022/09/25 05:16:46;;;;;;;4.35;2.97;;;;;;;6.84;100.00;99145.81;5152290;27;20054;-58
2022/09/25 05:19:13;;;;;;;4.53;3.38;;;;;;;6.82;100.00;99183.47;5151701;27;20054;-58
2022/09/25 05:21:39;;;;;;;4.10;2.72;;;;;;;6.94;100.00;99207.25;5151971;27;20504;-58
2022/09/25 05:24:07;;;;;;;7.70;3.28;;;;;;;7.09;100.00;99228.34;5151776;27;20481;-59
2022/09/25 05:26:33;;;;;;;5.60;3.30;;;;;;;7.25;100.00;99237.44;5151915;27;20050;-58
2022/09/25 05:29:00;;;;;;;7.70;3.30;;;;;;;7.21;100.00;99242.00;5151705;27;20467;-58
2022/09/25 05:31:26;;;;;;;3.42;2.83;;;;;;;7.36;100.00;99262.34;5151615;27;20099;-58
2022/09/25 05:33:53;;;;;;;4.00;2.90;;;;;;;7.58;100.00;99280.19;5151556;27;20042;-58
2022/09/25 05:36:20;;;;;;;3.42;2.83;;;;;;;7.66;100.00;99281.19;5151588;27;20046;-58
2022/09/25 05:38:47;;;;;;;5.03;2.70;;;;;;;7.73;100.00;99265.84;5151589;27;20051;-58
2022/09/25 05:41:13;;;;;;;4.75;2.90;;;;;;;7.60;100.00;99250.63;5151714;27;20046;-59
2022/09/25 05:43:41;;;;;;;2.72;2.53;;;;;;;7.88;100.00;99231.59;5151690;27;20405;-58
2022/09/25 05:46:08;;;;;;;7.75;3.22;;;;;;;7.83;100.00;99210.00;5151342;27;20046;-59
2022/09/25 05:48:34;;;;;;;2.50;2.30;;;;;;;7.88;100.00;99185.19;5151452;27;20086;-58
2022/09/25 05:51:01;;;;;;;3.60;2.80;;;;;;;7.87;100.00;99172.69;5151467;27;20051;-58
2022/09/25 05:53:29;;;;;;;6.38;3.08;;;;;;;7.70;100.00;99164.78;5151354;27;20497;-58
2022/09/25 05:55:57;;;;;;;3.97;2.67;;;;;;;7.74;100.00;99177.38;5151296;27;20093;-58
2022/09/25 05:58:24;;;;;;;3.90;2.47;;;;;;;7.86;100.00;99156.66;5151375;27;20050;-58
2022/09/25 06:00:50;;;;;;;4.47;3.10;;;;;;;8.19;100.00;99145.47;5151267;27;20475;-59
2022/09/25 06:03:18;;;;;;;3.78;2.70;;;;;;;8.15;100.00;99115.34;5151107;27;20091;-58
2022/09/25 06:05:45;;;;;;;3.20;2.60;;;;;;;7.90;100.00;99101.03;5151351;27;20078;-59
2022/09/25 06:08:12;;;;;;;3.05;2.78;;;;;;;7.72;100.00;99121.56;5151428;27;20068;-58
2022/09/25 06:10:39;;;;;;;5.22;2.72;;;;;;;8.15;100.00;99166.44;5151278;27;20043;-58
2022/09/25 06:13:07;;;;;;;6.68;2.80;;;;;;;8.29;100.00;99142.22;5151067;27;20569;-58
2022/09/25 06:15:35;;;;;;;6.55;3.13;;;;;;;8.02;100.00;99169.19;5151265;27;20127;-58
2022/09/25 06:18:02;;;;;;;4.03;2.90;;;;;;;8.40;100.00;99151.53;5151228;27;20047;-58
2022/09/25 06:20:28;;;;;;;4.55;2.33;;;;;;;8.64;100.00;99097.88;5151258;27;20078;-59
2022/09/25 06:22:55;;;;;;;7.97;3.40;;;;;;;8.92;100.00;99021.19;5151044;27;20043;-59
2022/09/25 06:25:22;;;;;;;2.75;2.20;;;;;;;8.78;100.00;98917.81;5154401;27;20058;-59
2022/09/25 06:27:52;;;;;;;2.90;2.28;;;;;;;9.01;100.00;98893.28;5154529;27;20046;-59
2022/09/25 06:30:19;;;;;;;3.15;2.63;;;;;;;8.87;100.00;98865.66;5154752;27;20047;-59
2022/09/25 06:32:45;;;;;;;2.42;2.22;;;;;;;9.13;100.00;98830.25;5154995;27;20637;-58
2022/09/25 06:35:11;;;;;;;3.60;2.50;;;;;;;9.16;100.00;98777.56;5154974;27;20065;-59
2022/09/25 06:37:37;;;;;;;6.35;2.90;;;;;;;9.02;100.00;98746.41;5154650;27;20505;-58
2022/09/25 06:40:04;;;;;;;3.10;2.60;;;;;;;9.23;100.00;98749.53;5154437;27;20050;-59
2022/09/25 06:42:33;;;;;;;4.65;2.35;;;;;;;9.29;100.00;98696.06;5154683;27;20050;-58
2022/09/25 06:45:00;;;;;;;4.95;2.97;;;;;;;9.31;100.00;98723.88;5154403;27;20047;-59
2022/09/25 06:47:27;;;;;;;4.93;2.90;;;;;;;9.38;100.00;98709.50;5154733;27;20061;-59
2022/09/25 06:49:53;;;;;;;4.22;2.70;;;;;;;9.46;100.00;98700.22;5154484;27;20097;-59
2022/09/25 06:52:19;;;;;;;5.70;2.63;;;;;;;9.65;100.00;98682.91;5154312;27;20050;-59
2022/09/25 06:54:45;;;;;;;5.00;2.65;;;;;;;9.62;100.00;98657.06;5154116;27;20046;-59
2022/09/25 06:57:14;;;;;;;3.78;2.53;;;;;;;9.63;100.00;98666.09;5154086;27;20050;-59
2022/09/25 06:59:40;;;;;;;4.47;2.80;;;;;;;9.84;100.00;98616.28;5154649;27;20425;-59
2022/09/25 07:04:50;;;;;;;3.95;2.70;;;;;;;9.78;100.00;98546.63;5153204;27;20397;-58
2022/09/25 07:07:18;;;;;;;5.63;2.30;;;;;;;10.06;100.00;98541.44;5153933;27;20058;-59
2022/09/25 07:09:44;;;;;;;2.95;2.00;;;;;;;10.10;100.00;98523.09;5153976;27;20062;-59
2022/09/25 07:12:10;;;;;;;2.60;2.40;;;;;;;10.01;100.00;98511.66;5153760;27;20520;-59
2022/09/25 07:14:37;;;;;;;5.90;2.63;;;;;;;10.22;100.00;98455.47;5153958;27;20047;-59
2022/09/25 07:17:03;;;;;;;3.88;2.28;;;;;;;9.94;100.00;98404.81;5153866;27;20054;-59
2022/09/25 07:19:30;;;;;;;5.05;2.88;;;;;;;9.73;100.00;98479.31;5154237;27;20054;-59
2022/09/25 07:21:57;;;;;;;3.65;2.30;;;;;;;10.48;100.00;98460.78;5153827;27;20046;-59
2022/09/25 07:24:24;;;;;;;2.97;2.25;;;;;;;10.09;100.00;98435.81;5153702;27;20130;-59
2022/09/25 07:26:51;;;;;;;3.55;2.13;;;;;;;10.35;100.00;98438.38;5154029;27;20054;-59
2022/09/25 07:29:18;;;;;;;4.57;2.20;;;;;;;10.55;100.00;98397.03;5153578;27;20069;-59
2022/09/25 07:31:44;;;;;;;5.97;2.05;;;;;;;10.23;100.00;98372.94;5153672;27;20053;-59
2022/09/25 07:34:11;;;;;;;3.58;2.42;;;;;;;10.59;100.00;98389.59;5153460;27;20102;-59
2022/09/25 07:36:41;;;;;;;2.33;2.13;;;;;;;10.70;100.00;98321.91;5152384;27;20047;-59
2022/09/25 07:39:08;;;;;;;4.65;2.63;;;;;;;10.72;100.00;98308.59;5153282;27;20047;-59
2022/09/25 07:41:35;;;;;;;2.88;2.22;;;;;;;10.66;100.00;98288.22;5153430;27;20516;-59
2022/09/25 07:44:02;;;;;;;2.78;2.10;;;;;;;10.79;100.00;98280.41;5153307;27;20248;-59
2022/09/25 07:46:30;;;;;;;3.53;2.70;;;;;;;10.79;100.00;98267.50;5153460;27;20043;-59
2022/09/25 07:48:56;;;;;;;3.08;2.40;;;;;;;10.74;100.00;98250.66;5153144;27;20046;-59
2022/09/25 07:51:25;;;;;;;3.85;2.33;;;;;;;10.88;100.00;98258.91;5153231;27;20065;-59
2022/09/25 07:53:52;;;;;;;3.85;2.58;;;;;;;10.84;100.00;98211.50;5153550;27;20047;-59
2022/09/25 07:56:19;;;;;;;2.47;1.88;;;;;;;10.77;100.00;98209.53;5153387;27;20047;-59
2022/09/25 07:58:45;;;;;;;2.83;2.33;;;;;;;10.75;100.00;98205.59;5153414;27;20493;-59
2022/09/25 08:01:13;;;;;;;3.90;2.15;;;;;;;10.69;100.00;98207.16;5153169;27;20047;-59
2022/09/25 08:03:39;;;;;;;3.50;2.60;;;;;;;10.96;100.00;98183.72;5153483;27;20058;-59
2022/09/25 08:06:08;;;;;;;2.30;2.10;;;;;;;11.00;100.00;98168.03;5152946;27;20066;-59
2022/09/25 08:08:35;;;;;;;3.13;2.55;;;;;;;11.19;100.00;98131.19;5153146;27;20047;-59
2022/09/25 08:11:05;;;;;;;8.73;2.67;;;;;;;10.96;100.00;98163.72;5152941;27;20047;-59
2022/09/25 08:13:32;;;;;;;4.90;2.33;;;;;;;10.93;100.00;98192.72;5152925;27;20043;-59
2022/09/25 08:16:01;;;;;;;5.28;2.30;;;;;;;10.84;100.00;98239.72;5152845;27;20050;-59
2022/09/25 08:18:27;;;;;;;5.65;2.75;;;;;;;11.25;100.00;98258.56;5152818;27;20047;-59
2022/09/25 08:20:53;;;;;;;5.03;2.70;;;;;;;11.42;100.00;98176.63;5153067;27;20050;-59
2022/09/25 08:23:20;;;;;;;4.45;3.03;;;;;;;11.38;100.00;98119.00;5152843;27;20066;-59
2022/09/25 08:25:47;;;;;;;4.32;2.55;;;;;;;11.61;100.00;98140.50;5152989;27;20046;-59
2022/09/25 08:28:14;;;;;;;5.78;2.65;;;;;;;11.50;100.00;98115.06;5152587;27;20050;-59
2022/09/25 08:30:42;;;;;;;4.18;2.40;;;;;;;11.37;100.00;98119.41;5153020;27;20050;-59
2022/09/25 08:33:11;;;;;;;4.95;2.67;;;;;;;11.31;100.00;98108.81;5152740;27;20512;-59
2022/09/25 08:35:37;;;;;;;6.20;2.83;;;;;;;11.40;100.00;98124.88;5152991;27;20050;-59
2022/09/25 08:38:03;;;;;;;5.20;2.97;;;;;;;11.21;100.00;98040.28;5152744;27;20057;-59
2022/09/25 08:40:33;;;;;;;3.97;3.10;;;;;;;11.78;100.00;98034.56;5152924;27;20054;-59
2022/09/25 08:43:00;;;;;;;2.22;2.03;;;;;;;11.97;100.00;98005.84;5152401;27;20046;-59
2022/09/25 08:51:08;;;;;;;3.17;2.20;;;;;;;12.25;100.00;97920.44;5152344;27;20171;-59
2022/09/25 08:53:35;;;;;;;3.72;2.13;;;;;;;12.27;100.00;97955.78;5152547;27;20057;-59
2022/09/25 08:56:19;;;;;;;4.85;2.30;;;;;;;12.43;100.00;97914.03;5152077;27;20043;-59
2022/09/25 08:58:54;;;;;;;4.30;2.25;;;;;;;12.21;100.00;97935.41;5152351;27;20055;-59
2022/09/25 09:01:24;;;;;;;10.20;2.70;;;;;;;12.35;100.00;97926.25;5152080;27;20057;-59
2022/09/25 09:03:56;;;;;;;4.13;2.67;;;;;;;12.05;100.00;97900.22;5151874;27;20047;-59
2022/09/25 09:06:24;;;;;;;2.45;2.17;;;;;;;11.74;100.00;97893.78;5152013;27;20051;-59
2022/09/25 09:08:54;;;;;;;4.22;2.17;;;;;;;12.11;100.00;97906.06;5152216;27;20990;-59
2022/09/25 09:11:23;;;;;;;6.35;2.35;;;;;;;12.24;100.00;97885.16;5151944;27;20099;-59
2022/09/25 09:13:56;;;;;;;6.30;2.20;;;;;;;12.19;100.00;97899.31;5151972;27;20082;-59
2022/09/25 09:16:31;;;;;;;3.45;2.30;;;;;;;12.40;100.00;97895.59;5151892;27;20065;-59
2022/09/25 09:19:01;;;;;;;3.17;2.28;;;;;;;12.30;100.00;97899.25;5151656;27;20079;-59
2022/09/25 09:21:33;;;;;;;2.55;2.13;;;;;;;12.09;100.00;97895.47;5152204;27;20046;-59
2022/09/25 09:24:05;;;;;;;6.95;2.42;;;;;;;12.46;100.00;97885.69;5151932;27;20099;-59
2022/09/25 09:26:50;;;;;;;4.78;2.30;;;;;;;12.74;100.00;97872.84;5151854;27;20050;-59
2022/09/25 09:29:30;;;;;;;3.42;2.40;;;;;;;12.87;100.00;97843.63;5151790;27;20046;-59
2022/09/25 09:32:10;;;;;;;4.95;3.13;;;;;;;13.10;100.00;97831.94;5151864;27;20455;-59
2022/09/25 09:34:50;;;;;;;3.17;2.10;;;;;;;12.80;100.00;97829.97;5151864;27;20046;-59
2022/09/25 09:37:29;;;;;;;3.03;2.15;;;;;;;13.31;100.00;97828.13;5151689;27;20046;-59
2022/09/25 09:40:10;;;;;;;2.72;2.13;;;;;;;13.53;100.00;97831.31;5151560;27;20157;-59
2022/09/25 09:42:45;;;;;;;2.20;1.90;;;;;;;13.59;100.00;97822.16;5151456;27;20521;-59
2022/09/25 09:45:19;;;;;;;3.53;2.28;;;;;;;14.24;100.00;97834.88;5151464;27;20061;-60
2022/09/25 09:47:53;;;;;;;4.37;1.93;;;;;;;14.66;100.00;97838.84;5151752;27;20412;-60
2022/09/25 09:50:24;;;;;;;;;;;;;;;14.23;100.00;97853.41;5151688;27;20055;-59
2022/09/25 09:52:57;;;;;;;3.17;2.15;;;;;;;14.45;100.00;97872.28;5151118;27;20324;-59
2022/09/25 09:55:28;;;;;;;6.35;2.22;;;;;;;14.71;100.00;97873.41;5151830;27;20042;-59
2022/09/25 09:57:58;;;;;;;7.47;2.25;;;;;;;14.79;100.00;97892.16;5150770;27;20051;-59
2022/09/25 10:00:24;;;;;;;6.85;2.90;;;;;;;15.27;100.00;97915.63;5151039;27;20083;-59
2022/09/25 10:02:55;;;;;;;3.58;2.20;;;;;;;15.18;100.00;97958.81;5151181;27;20042;-60
2022/09/25 10:05:25;;;;;;;2.40;2.15;;;;;;;15.03;100.00;97970.16;5151531;27;20043;-59
2022/09/25 10:07:53;;;;;;;4.35;3.35;;;;;;;16.26;100.00;97999.53;5151258;27;20078;-59
2022/09/25 10:10:22;;;;;;;2.88;2.40;;;;;;;16.75;100.00;98051.34;5151072;27;20050;-60
2022/09/25 10:12:50;;;;;;;2.70;2.40;;;;;;;16.71;100.00;98043.09;5151260;27;20050;-60
2022/09/25 10:15:26;;;;;;;3.65;2.65;;;;;;;17.40;100.00;98124.03;5150991;27;20054;-60
2022/09/25 10:17:54;;;;;;;2.42;2.13;;;;;;;17.60;100.00;98148.84;5151162;27;20047;-60
2022/09/25 10:20:22;;;;;;;3.67;2.55;;;;;;;17.13;100.00;98137.41;5150893;27;20061;-59
2022/09/25 10:22:52;;;;;;;2.47;2.17;;;;;;;17.18;100.00;98125.78;5151275;27;20043;-59
2022/09/25 10:25:34;;;;;;;3.22;2.42;;;;;;;16.53;100.00;98104.41;5150896;27;20501;-59
2022/09/25 10:28:19;;;;;;;4.40;2.67;;;;;;;16.28;100.00;98059.94;5151036;27;20570;-59
2022/09/25 10:30:46;;;;;;;3.40;3.10;;;;;;;15.68;100.00;98029.63;5150971;27;20517;-60
2022/09/25 10:33:18;;;;;;;5.28;2.78;;;;;;;15.28;100.00;98048.94;5151169;27;20050;-59
2022/09/25 10:35:47;;;;;;;4.78;3.50;;;;;;;15.38;100.00;98017.59;5150857;27;20110;-59
2022/09/25 10:38:26;;;;;;;3.45;2.10;;;;;;;14.89;100.00;97967.63;5151091;27;20046;-59
2022/09/25 10:41:01;;;;;;;3.63;3.33;;;;;;;14.82;100.00;97913.38;5150549;27;20102;-59
2022/09/25 10:43:28;;;;;;;5.50;3.50;;;;;;;14.61;100.00;97894.47;5150629;27;20053;-59
2022/09/25 10:46:06;;;;;;;3.50;2.45;;;;;;;14.76;100.00;97884.75;5150770;27;20043;-59
2022/09/25 10:51:20;;;;;;;2.50;2.30;;;;;;;14.47;100.00;97848.63;5150967;27;20058;-59
2022/09/25 10:53:47;;;;;;;3.30;2.53;;;;;;;14.53;100.00;97858.00;5150651;27;20046;-59
2022/09/25 10:56:19;;;;;;;3.80;2.38;;;;;;;14.62;100.00;97851.13;5150665;27;20478;-59
2022/09/25 10:58:50;;;;;;;7.15;2.55;;;;;;;14.54;100.00;97845.75;5151012;27;20441;-59
2022/09/25 11:01:17;;;;;;;3.38;2.25;;;;;;;14.63;100.00;97812.09;5150360;27;20502;-59
2022/09/25 11:03:51;;;;;;;3.25;3.03;;;;;;;14.62;100.00;97837.34;5150645;27;20422;-59
2022/09/25 11:06:24;;;;;;;3.38;2.40;;;;;;;14.82;100.00;97927.16;5150515;27;20149;-59
2022/09/25 11:09:10;;;;;;;6.45;2.63;;;;;;;14.88;100.00;97855.72;5150281;27;20050;-59
2022/09/25 11:11:38;;;;;;;2.75;2.15;;;;;;;14.91;100.00;97889.97;5150624;27;20050;-59
2022/09/25 11:14:07;;;;;;;3.70;3.40;;;;;;;15.14;100.00;97911.97;5154089;27;20046;-59
2022/09/25 11:16:48;;;;;;;5.72;3.50;;;;;;;14.91;100.00;97898.25;5153743;27;20058;-59
2022/09/25 11:19:21;;;;;;;2.47;2.22;;;;;;;14.49;100.00;97903.34;5153925;27;20477;-59
2022/09/25 11:21:55;;;;;;;2.53;1.80;;;;;;;14.93;100.00;97862.75;5153936;27;20050;-59
2022/09/25 11:24:25;;;;;;;3.60;2.33;;;;;;;14.73;100.00;97884.81;5153618;27;20050;-59
2022/09/25 11:26:57;;;;;;;3.80;2.40;;;;;;;14.62;100.00;97907.06;5153674;27;20047;-59
2022/09/25 11:29:32;;;;;;;6.50;2.17;;;;;;;14.25;100.00;97906.09;5153581;27;20134;-59
2022/09/25 11:32:06;;;;;;;4.35;1.85;;;;;;;14.59;100.00;97903.19;5153495;27;20043;-59
2022/09/25 11:34:50;;;;;;;2.33;2.00;;;;;;;14.71;100.00;97942.38;5153532;27;20098;-59
2022/09/25 11:37:24;;;;;;;3.10;2.05;;;;;;;14.97;100.00;97982.09;5153747;27;20518;-59
2022/09/25 11:42:51;;;;;;;2.10;1.70;;;;;;;14.88;100.00;97992.91;5154058;27;20421;-60
2022/09/25 11:45:23;;;;;;;2.67;1.85;;;;;;;14.75;100.00;97893.44;5153891;27;20047;-59
2022/09/25 11:47:55;;;;;;;1.75;1.65;;;;;;;14.60;100.00;98017.03;5153690;27;20068;-59
2022/09/25 11:50:32;;;;;;;2.33;1.77;;;;;;;14.50;100.00;97990.41;5153570;27;20471;-59
2022/09/25 11:53:09;;;;;;;4.15;1.90;;;;;;;14.82;100.00;98020.97;5153570;27;20118;-60
2022/09/25 11:56:03;;;;;;;3.03;1.45;;;;;;;14.77;100.00;98045.53;5153420;27;20061;-58
2022/09/25 11:58:43;;;;;;;3.15;1.92;;;;;;;14.90;100.00;98059.50;5153247;27;20497;-59